Impacts TAF Board
For situational awareness. Not to be used for flight planning purposes.
IDs:

KPIT - Pittsburgh Intl, PA, US

Issued at 0520 UTC 16 Oct 2018
Updated at 0732 UTC 16 Oct 2018
Potential Impact None Slight Moderate High
Time<<16/20Z 16/21Z 16/22Z 16/23Z 17/00Z 17/01Z 17/02Z 17/03Z 17/04Z 17/05Z 17/06Z 17/07Z 17/08Z>>
Type PRVL PRVL PRVL PRVL PRVL PRVL PRVL PRVL PRVL PRVL PRVL PRVL PRVL
VIS >6 >6 >6 >6 >6 >6 >6 >6 >6 >6 >6 >6 >6
CIG -- -- -- -- -- -- -- -- -- -- -- -- --
Cover SKC SKC SKC SKC SKC SKC SKC SKC SKC SKC SKC SKC SKC
FltCat VFR VFR VFR VFR VFR VFR VFR VFR VFR VFR VFR VFR VFR
WX -- -- -- -- -- -- -- -- -- -- -- -- --
WDir 270 270 270 270 270 230 230 230 230 230 230 230 230
WSpd 12 12 12 12 12 6 6 6 6 6 6 6 6
WGst 20 20 20 20 20 -- -- -- -- -- -- -- --
Raw TAF
KPIT 160520Z 1606/1712 30005KT P6SM BKN200
  FM161600 27012G20KT P6SM SKC
  FM170100 23006KT P6SM SKC


METAR Board
Radar Display
Forecast Discussion
For situational awareness. Not to be used for flight planning purposes.